createdAt,value
2018-12-25T00:01:23.922Z,5.90
2018-12-25T00:03:53.996Z,6.13
2018-12-25T00:06:27.235Z,5.73
2018-12-25T00:08:57.710Z,6.30
2018-12-25T00:11:27.980Z,6.37
2018-12-25T00:13:58.539Z,6.37
2018-12-25T00:16:29.399Z,6.20
2018-12-25T00:19:06.110Z,6.27
2018-12-25T00:21:31.884Z,5.60
2018-12-25T00:24:02.262Z,6.30
2018-12-25T00:26:32.772Z,5.43
2018-12-25T00:29:03.169Z,6.00
2018-12-25T00:31:33.252Z,5.93
2018-12-25T00:34:03.439Z,6.30
2018-12-25T00:36:34.399Z,5.83
2018-12-25T00:39:07.254Z,6.37
2018-12-25T00:41:38.618Z,6.77
2018-12-25T00:44:08.975Z,6.07
2018-12-25T00:46:39.363Z,6.60
2018-12-25T00:49:14.673Z,6.40
2018-12-25T00:51:41.860Z,7.13
2018-12-25T00:54:12.354Z,6.87
2018-12-25T00:56:42.467Z,6.33
2018-12-25T00:59:13.006Z,6.37
2018-12-25T01:01:44.263Z,5.97
2018-12-25T01:04:14.278Z,5.87
2018-12-25T01:06:44.508Z,5.30
2018-12-25T01:09:14.586Z,5.73
2018-12-25T01:11:45.007Z,5.60
2018-12-25T01:14:15.332Z,5.27
2018-12-25T01:16:46.044Z,5.70
2018-12-25T01:19:23.258Z,6.07
2018-12-25T01:21:48.231Z,5.10
2018-12-25T01:24:18.239Z,5.17
2018-12-25T01:26:47.809Z,5.23
2018-12-25T01:29:17.818Z,5.60
2018-12-25T01:31:47.825Z,5.47
2018-12-25T01:34:18.980Z,5.13
2018-12-25T01:36:49.061Z,5.73
2018-12-25T01:39:19.185Z,5.10
2018-12-25T01:41:49.894Z,6.07
2018-12-25T01:44:20.191Z,5.50
2018-12-25T01:46:50.610Z,5.00
2018-12-25T01:49:20.487Z,5.60
2018-12-25T01:51:50.166Z,5.33
2018-12-25T01:54:20.260Z,5.70
2018-12-25T01:56:50.948Z,5.30
2018-12-25T01:59:20.562Z,5.43
2018-12-25T02:01:50.505Z,5.87
2018-12-25T02:04:21.295Z,5.37
2018-12-25T02:06:50.786Z,5.10
2018-12-25T02:09:20.878Z,4.80
2018-12-25T02:11:50.929Z,4.93
2018-12-25T02:14:21.241Z,5.43
2018-12-25T02:16:50.775Z,5.00
2018-12-25T02:19:21.259Z,5.50
2018-12-25T02:21:51.337Z,5.53
2018-12-25T02:24:21.347Z,5.70
2018-12-25T02:26:52.099Z,6.03
2018-12-25T02:29:22.242Z,5.53
2018-12-25T02:31:55.619Z,6.10
2018-12-25T02:34:25.735Z,5.57
2018-12-25T02:36:55.919Z,5.83
2018-12-25T02:39:25.865Z,6.00
2018-12-25T02:41:55.971Z,5.70
2018-12-25T02:44:26.371Z,6.07
2018-12-25T02:46:56.802Z,5.77
2018-12-25T02:49:27.153Z,6.03
2018-12-25T02:51:59.135Z,5.50
2018-12-25T02:54:29.194Z,6.10
2018-12-25T02:56:59.563Z,5.73
2018-12-25T02:59:29.628Z,5.83
2018-12-25T03:02:02.187Z,6.10
2018-12-25T03:04:32.547Z,6.10
2018-12-25T03:07:02.723Z,6.27
2018-12-25T03:09:33.422Z,6.27
2018-12-25T03:12:03.688Z,6.30
2018-12-25T03:14:34.344Z,6.17
2018-12-25T03:17:04.561Z,6.60
2018-12-25T03:19:34.138Z,7.30
2018-12-25T03:22:04.218Z,6.93
2018-12-25T03:24:34.429Z,6.53
2018-12-25T03:27:05.211Z,6.87
2018-12-25T03:29:35.307Z,5.87
2018-12-25T03:32:06.442Z,7.20
2018-12-25T03:34:36.491Z,7.17
2018-12-25T03:37:06.962Z,6.90
2018-12-25T03:39:37.086Z,6.83
2018-12-25T03:42:07.554Z,6.90
2018-12-25T03:44:37.598Z,6.97
2018-12-25T03:47:08.478Z,6.60
2018-12-25T03:49:43.390Z,6.73
2018-12-25T03:52:13.466Z,6.77
2018-12-25T03:54:43.839Z,6.40
2018-12-25T03:57:15.369Z,5.87
2018-12-25T03:59:45.443Z,6.70
2018-12-25T04:02:15.574Z,6.40
2018-12-25T04:04:46.302Z,7.67
2018-12-25T04:07:16.308Z,7.87
2018-12-25T04:09:46.343Z,7.20
2018-12-25T04:12:16.362Z,7.27
2018-12-25T04:14:46.682Z,8.03
2018-12-25T04:17:17.183Z,7.97
2018-12-25T04:19:51.651Z,7.67
2018-12-25T04:22:21.732Z,7.87
2018-12-25T04:24:52.146Z,7.57
2018-12-25T04:27:22.163Z,7.50
2018-12-25T04:29:52.485Z,8.73
2018-12-25T04:32:22.971Z,9.40
2018-12-25T04:34:52.303Z,10.90
2018-12-25T04:37:23.205Z,10.10
2018-12-25T04:39:53.311Z,10.40
2018-12-25T04:42:23.403Z,10.53
2018-12-25T04:44:52.898Z,10.40
2018-12-25T04:47:23.134Z,10.17
2018-12-25T04:49:54.429Z,9.43
2018-12-25T04:52:24.658Z,10.87
2018-12-25T04:54:54.668Z,10.43
2018-12-25T04:57:24.582Z,10.33
2018-12-25T04:59:54.979Z,9.57
2018-12-25T05:02:25.123Z,10.83
2018-12-25T05:04:55.519Z,10.30
2018-12-25T05:07:25.578Z,9.77
2018-12-25T05:09:56.035Z,10.53
2018-12-25T05:12:26.183Z,10.50
2018-12-25T05:14:56.599Z,10.20
2018-12-25T05:17:26.852Z,9.63
2018-12-25T05:19:57.322Z,9.87
2018-12-25T05:22:27.518Z,9.70
2018-12-25T05:24:58.162Z,9.03
2018-12-25T05:27:28.285Z,9.63
2018-12-25T05:29:58.369Z,10.20
2018-12-25T05:32:28.535Z,9.90
2018-12-25T05:34:58.498Z,9.97
2018-12-25T05:37:29.065Z,9.43
2018-12-25T05:39:59.198Z,10.60
2018-12-25T05:42:29.635Z,9.40
2018-12-25T05:44:59.743Z,11.03
2018-12-25T05:47:29.788Z,10.03
2018-12-25T05:49:59.894Z,9.80
2018-12-25T05:52:30.092Z,10.30
2018-12-25T05:55:02.151Z,9.80
2018-12-25T05:57:31.694Z,10.23
2018-12-25T06:00:02.103Z,9.77
2018-12-25T06:02:32.252Z,9.13
2018-12-25T06:05:02.655Z,8.97
2018-12-25T06:07:32.982Z,8.47
2018-12-25T06:10:04.535Z,8.07
2018-12-25T06:12:34.373Z,9.10
2018-12-25T06:15:14.071Z,9.10
2018-12-25T06:17:46.243Z,8.97
2018-12-25T06:20:17.898Z,9.73
2018-12-25T06:22:48.050Z,10.73
2018-12-25T06:25:18.425Z,10.03
2018-12-25T06:27:48.546Z,8.57
2018-12-25T06:30:20.127Z,9.73
2018-12-25T06:32:51.495Z,9.67
2018-12-25T06:35:21.901Z,10.37
2018-12-25T06:37:52.475Z,9.17
2018-12-25T06:40:22.771Z,9.63
2018-12-25T06:42:53.342Z,10.60
2018-12-25T06:45:23.677Z,9.77
2018-12-25T06:47:53.197Z,9.37
2018-12-25T06:50:23.817Z,9.20
2018-12-25T06:52:54.247Z,8.80
2018-12-25T06:55:24.442Z,9.03
2018-12-25T06:57:54.791Z,8.60
2018-12-25T07:00:25.161Z,8.70
2018-12-25T07:02:56.573Z,8.67
2018-12-25T07:05:26.877Z,8.57
2018-12-25T07:07:56.981Z,8.27
2018-12-25T07:10:26.978Z,8.93
2018-12-25T07:12:57.470Z,9.17
2018-12-25T07:15:32.961Z,8.77
2018-12-25T07:18:07.418Z,7.97
2018-12-25T07:20:37.723Z,8.60
2018-12-25T07:23:08.201Z,8.87
2018-12-25T07:25:38.535Z,8.47
2018-12-25T07:28:08.547Z,8.70
2018-12-25T07:30:38.963Z,7.73
2018-12-25T07:33:09.703Z,8.00
2018-12-25T07:35:39.780Z,8.03
2018-12-25T07:38:10.860Z,9.07
2018-12-25T07:40:41.147Z,9.47
2018-12-25T07:43:11.197Z,8.93
2018-12-25T07:45:41.820Z,8.57
2018-12-25T07:48:12.350Z,8.70
2018-12-25T07:50:42.527Z,8.67
2018-12-25T07:53:12.703Z,8.10
2018-12-25T07:55:43.124Z,8.20
2018-12-25T07:58:13.542Z,9.33
2018-12-25T08:00:43.062Z,9.40
2018-12-25T08:03:14.408Z,8.73
2018-12-25T08:05:44.527Z,8.97
2018-12-25T08:08:14.587Z,8.80
2018-12-25T08:10:45.049Z,9.20
2018-12-25T08:13:15.115Z,8.67
2018-12-25T08:15:45.391Z,8.87
2018-12-25T08:18:15.431Z,7.77
2018-12-25T08:20:45.755Z,7.60
2018-12-25T08:23:15.771Z,8.37
2018-12-25T08:25:46.215Z,8.07
2018-12-25T08:28:16.804Z,8.60
2018-12-25T08:30:46.962Z,8.60
2018-12-25T08:33:16.994Z,9.07
2018-12-25T08:35:47.317Z,8.30
2018-12-25T08:38:17.829Z,8.47
2018-12-25T08:40:48.636Z,8.83
2018-12-25T08:43:18.957Z,9.47
2018-12-25T08:46:02.286Z,9.27
2018-12-25T08:48:32.590Z,8.77
2018-12-25T08:51:02.805Z,9.07
2018-12-25T08:53:34.547Z,8.27
2018-12-25T08:56:04.513Z,8.47
2018-12-25T08:58:34.822Z,9.03
2018-12-25T09:01:05.185Z,8.80
2018-12-25T09:03:36.635Z,8.90
2018-12-25T09:06:06.662Z,8.50
2018-12-25T09:08:37.164Z,9.83
2018-12-25T09:11:06.682Z,8.77
2018-12-25T09:13:36.694Z,9.73
2018-12-25T09:16:07.404Z,9.17
2018-12-25T09:18:38.442Z,8.83
2018-12-25T09:21:08.806Z,9.00
2018-12-25T09:23:38.833Z,7.87
2018-12-25T09:26:08.916Z,8.70
2018-12-25T09:28:38.945Z,8.97
2018-12-25T09:31:08.934Z,9.50
2018-12-25T09:33:39.418Z,9.07
2018-12-25T09:36:09.483Z,8.67
2018-12-25T09:38:40.059Z,8.80
2018-12-25T09:41:10.228Z,8.60
2018-12-25T09:43:40.889Z,8.63
2018-12-25T09:46:11.007Z,8.07
2018-12-25T09:48:42.010Z,9.40
2018-12-25T09:51:12.254Z,8.70
2018-12-25T09:53:42.685Z,8.40
2018-12-25T09:56:13.155Z,8.50
2018-12-25T09:58:44.670Z,8.57
2018-12-25T10:01:14.830Z,7.43
2018-12-25T10:03:44.869Z,8.20
2018-12-25T10:06:14.992Z,7.77
2018-12-25T10:08:45.698Z,8.53
2018-12-25T10:11:16.430Z,7.53
2018-12-25T10:13:47.523Z,8.17
2018-12-25T10:16:18.052Z,7.40
2018-12-25T10:18:48.451Z,7.37
2018-12-25T10:21:18.135Z,7.77
2018-12-25T10:23:49.542Z,6.87
2018-12-25T10:26:20.276Z,6.27
2018-12-25T10:28:50.361Z,7.37
2018-12-25T10:31:20.871Z,6.77
2018-12-25T10:33:51.494Z,7.03
2018-12-25T10:36:21.152Z,6.63
2018-12-25T10:38:53.297Z,7.50
2018-12-25T10:41:23.822Z,7.10
2018-12-25T10:43:53.810Z,7.40
2018-12-25T10:46:24.234Z,7.77
2018-12-25T10:48:54.933Z,7.70
2018-12-25T10:51:25.011Z,7.00
2018-12-25T10:53:55.342Z,7.67
2018-12-25T10:56:25.882Z,7.90
2018-12-25T10:58:56.082Z,7.53
2018-12-25T11:01:29.519Z,6.90
2018-12-25T11:03:59.098Z,7.73
2018-12-25T11:06:29.148Z,7.73
2018-12-25T11:08:59.189Z,7.20
2018-12-25T11:11:29.411Z,6.77
2018-12-25T11:13:58.928Z,7.43
2018-12-25T11:16:28.967Z,7.63
2018-12-25T11:18:59.146Z,7.40
2018-12-25T11:21:29.043Z,6.93
2018-12-25T11:23:58.468Z,7.37
2018-12-25T11:26:28.219Z,7.07
2018-12-25T11:28:58.582Z,7.00
2018-12-25T11:31:29.358Z,7.00
2018-12-25T11:33:59.555Z,9.10
2018-12-25T11:36:29.382Z,9.27
2018-12-25T11:38:59.774Z,9.57
2018-12-25T11:41:29.966Z,10.07
2018-12-25T11:44:00.419Z,10.60
2018-12-25T11:46:30.985Z,9.30
2018-12-25T11:49:01.425Z,9.40
2018-12-25T11:51:31.673Z,10.13
2018-12-25T11:54:02.686Z,10.90
2018-12-25T11:56:32.219Z,9.77
2018-12-25T11:59:04.838Z,10.33
2018-12-25T12:01:34.479Z,10.00
2018-12-25T12:04:04.771Z,9.30
2018-12-25T12:06:35.219Z,8.83
2018-12-25T12:09:07.578Z,10.27
2018-12-25T12:11:38.093Z,10.47
2018-12-25T12:14:08.277Z,11.20
2018-12-25T12:16:39.475Z,10.57
2018-12-25T12:19:09.532Z,9.13
2018-12-25T12:21:41.062Z,9.97
2018-12-25T12:24:10.878Z,9.40
2018-12-25T12:26:41.034Z,10.20
2018-12-25T12:29:11.502Z,8.13
2018-12-25T12:31:41.720Z,7.80
2018-12-25T12:34:12.152Z,9.43
2018-12-25T12:36:42.914Z,9.37
2018-12-25T12:39:15.967Z,9.30
2018-12-25T12:41:45.501Z,8.70
2018-12-25T12:44:15.909Z,7.57
2018-12-25T12:46:45.443Z,9.63
2018-12-25T12:49:15.979Z,9.50
2018-12-25T12:51:46.190Z,8.97
2018-12-25T12:54:16.874Z,9.47
2018-12-25T12:56:47.315Z,9.47
2018-12-25T12:59:19.766Z,9.70
2018-12-25T13:01:50.362Z,9.60
2018-12-25T13:04:20.800Z,9.43
2018-12-25T13:06:50.490Z,9.03
2018-12-25T13:09:23.007Z,9.13
2018-12-25T13:11:53.763Z,7.83
2018-12-25T13:14:24.086Z,9.27
2018-12-25T13:16:54.187Z,10.63
2018-12-25T13:19:24.431Z,9.17
2018-12-25T13:21:54.429Z,9.17
2018-12-25T13:24:24.665Z,9.87
2018-12-25T13:26:55.124Z,9.17
2018-12-25T13:29:25.178Z,9.70
2018-12-25T13:31:55.337Z,10.77
2018-12-25T13:34:25.634Z,10.17
2018-12-25T13:36:55.858Z,10.30
2018-12-25T13:39:26.025Z,10.03
2018-12-25T13:41:56.106Z,10.57
2018-12-25T13:44:26.230Z,9.20
2018-12-25T13:46:56.886Z,11.23
2018-12-25T13:49:27.404Z,9.83
2018-12-25T13:51:57.534Z,9.87
2018-12-25T13:54:27.951Z,10.50
2018-12-25T13:56:58.351Z,10.33
2018-12-25T13:59:28.613Z,10.07
2018-12-25T14:01:59.329Z,9.80
2018-12-25T14:04:29.539Z,11.50
2018-12-25T14:07:00.092Z,11.23
2018-12-25T14:09:30.610Z,10.80
2018-12-25T14:12:00.199Z,11.17
2018-12-25T14:14:50.096Z,11.83
2018-12-25T14:17:34.413Z,11.93
2018-12-25T14:20:04.923Z,11.80
2018-12-25T14:22:35.541Z,11.03
2018-12-25T14:25:06.410Z,10.10
2018-12-25T14:27:35.992Z,12.17
2018-12-25T14:30:07.000Z,11.97
2018-12-25T14:32:37.803Z,12.93
2018-12-25T14:35:07.940Z,12.70
2018-12-25T14:37:37.860Z,12.37
2018-12-25T14:40:07.927Z,12.60
2018-12-25T14:42:38.580Z,13.27
2018-12-25T14:45:08.954Z,12.47
2018-12-25T14:47:38.556Z,14.67
2018-12-25T14:50:08.855Z,12.33
2018-12-25T14:52:39.071Z,13.50
2018-12-25T14:55:09.730Z,14.33
2018-12-25T14:57:39.234Z,13.33
2018-12-25T15:00:11.160Z,14.17
2018-12-25T15:02:41.350Z,13.90
2018-12-25T15:05:11.463Z,13.97
2018-12-25T15:07:41.117Z,13.77
2018-12-25T15:10:11.251Z,13.10
2018-12-25T15:12:41.439Z,13.50
2018-12-25T15:15:12.022Z,13.30
2018-12-25T15:17:42.193Z,14.70
2018-12-25T15:20:12.348Z,12.97
2018-12-25T15:22:43.443Z,13.40
2018-12-25T15:25:13.207Z,13.23
2018-12-25T15:27:43.299Z,13.53
2018-12-25T15:30:13.826Z,11.90
2018-12-25T15:32:43.969Z,12.73
2018-12-25T15:35:14.360Z,13.57
2018-12-25T15:37:44.566Z,11.97
2018-12-25T15:40:15.076Z,13.13
2018-12-25T15:42:45.451Z,12.43
2018-12-25T15:45:16.155Z,12.00
2018-12-25T15:47:46.461Z,13.80
2018-12-25T15:50:16.882Z,12.57
2018-12-25T15:52:46.526Z,13.13
2018-12-25T15:55:16.987Z,12.37
2018-12-25T15:57:47.375Z,12.87
2018-12-25T16:00:18.623Z,12.67
2018-12-25T16:02:49.864Z,13.20
2018-12-25T16:05:20.298Z,12.97
2018-12-25T16:07:50.375Z,11.93
2018-12-25T16:10:20.928Z,14.07
2018-12-25T16:12:51.890Z,11.37
2018-12-25T16:15:22.239Z,12.63
2018-12-25T16:17:52.114Z,14.60
2018-12-25T16:20:21.615Z,12.73
2018-12-25T16:22:52.594Z,13.37
2018-12-25T16:25:22.727Z,12.93
2018-12-25T16:27:53.182Z,13.23
2018-12-25T16:30:22.966Z,13.30
2018-12-25T16:32:52.990Z,13.17
2018-12-25T16:35:23.371Z,12.97
2018-12-25T16:37:55.427Z,12.97
2018-12-25T16:40:25.011Z,12.50
2018-12-25T16:42:55.469Z,13.30
2018-12-25T16:45:25.592Z,14.10
2018-12-25T16:47:56.151Z,14.30
2018-12-25T16:50:26.780Z,13.50
2018-12-25T16:52:56.830Z,12.87
2018-12-25T16:55:26.435Z,13.43
2018-12-25T16:57:56.422Z,14.10
2018-12-25T17:00:26.588Z,13.30
2018-12-25T17:02:56.676Z,13.20
2018-12-25T17:05:26.862Z,12.97
2018-12-25T17:07:57.483Z,12.90
2018-12-25T17:10:27.924Z,12.63
2018-12-25T17:12:58.016Z,11.27
2018-12-25T17:15:28.081Z,11.77
2018-12-25T17:17:59.064Z,11.73
2018-12-25T17:20:29.208Z,11.03
2018-12-25T17:22:58.765Z,11.53
2018-12-25T17:25:29.615Z,11.87
2018-12-25T17:27:59.687Z,11.50
2018-12-25T17:30:29.772Z,10.50
2018-12-25T17:32:59.846Z,10.90
2018-12-25T17:35:30.250Z,11.30
2018-12-25T17:38:00.386Z,11.67
2018-12-25T17:40:30.174Z,10.83
2018-12-25T17:43:01.213Z,10.97
2018-12-25T17:45:31.397Z,12.40
2018-12-25T17:48:01.653Z,12.43
2018-12-25T17:50:32.696Z,11.63
2018-12-25T17:53:02.833Z,10.93
2018-12-25T17:55:33.230Z,10.83
2018-12-25T17:58:02.815Z,11.60
2018-12-25T18:00:35.511Z,11.00
2018-12-25T18:03:05.770Z,12.10
2018-12-25T18:05:36.474Z,12.30
2018-12-25T18:08:06.536Z,12.10
2018-12-25T18:10:37.106Z,12.27
2018-12-25T18:13:07.265Z,11.67
2018-12-25T18:15:37.412Z,11.43
2018-12-25T18:18:07.811Z,10.90
2018-12-25T18:20:37.982Z,10.47
2018-12-25T18:23:08.171Z,10.50
2018-12-25T18:25:38.013Z,10.83
2018-12-25T18:28:09.014Z,9.53
2018-12-25T18:30:39.514Z,10.23
2018-12-25T18:33:09.736Z,9.67
2018-12-25T18:35:39.930Z,9.23
2018-12-25T18:38:11.520Z,8.93
2018-12-25T18:40:42.260Z,8.80
2018-12-25T18:43:12.413Z,9.40
2018-12-25T18:45:41.962Z,10.27
2018-12-25T18:48:12.043Z,10.00
2018-12-25T18:50:41.590Z,9.73
2018-12-25T18:53:11.658Z,9.43
2018-12-25T18:55:42.044Z,9.13
2018-12-25T18:58:12.148Z,9.10
2018-12-25T19:00:41.631Z,9.93
2018-12-25T19:03:11.978Z,9.23
2018-12-25T19:05:42.358Z,8.20
2018-12-25T19:08:12.478Z,9.10
2018-12-25T19:10:42.858Z,9.03
2018-12-25T19:13:13.027Z,9.57
2018-12-25T19:15:43.846Z,8.63
2018-12-25T19:18:14.428Z,10.10
2018-12-25T19:20:44.693Z,10.50
2018-12-25T19:23:14.883Z,10.53
2018-12-25T19:25:45.105Z,9.93
2018-12-25T19:28:14.741Z,8.93
2018-12-25T19:30:44.853Z,9.43
2018-12-25T19:33:14.932Z,8.93
2018-12-25T19:35:45.409Z,8.87
2018-12-25T19:38:15.527Z,9.47
2018-12-25T19:40:45.872Z,9.83
2018-12-25T19:43:15.919Z,9.27
2018-12-25T19:45:46.402Z,9.20
2018-12-25T19:48:16.524Z,10.77
2018-12-25T19:50:47.333Z,9.53
2018-12-25T19:53:17.423Z,9.40
2018-12-25T19:55:47.609Z,9.07
2018-12-25T19:58:17.790Z,8.87
2018-12-25T20:00:47.981Z,8.47
2018-12-25T20:03:21.848Z,8.70
2018-12-25T20:06:22.370Z,8.87
2018-12-25T20:09:24.863Z,9.37
2018-12-25T20:12:30.052Z,8.63
2018-12-25T20:15:19.440Z,8.67
2018-12-25T20:18:23.863Z,9.10
2018-12-25T20:21:32.141Z,8.67
2018-12-25T20:24:40.050Z,9.20
2018-12-25T20:27:31.770Z,9.37
2018-12-25T20:30:37.998Z,10.03
2018-12-25T20:33:39.718Z,9.37
2018-12-25T20:36:51.101Z,10.03
2018-12-25T20:39:48.327Z,9.93
2018-12-25T20:42:34.216Z,9.13
2018-12-25T20:45:43.828Z,8.97
2018-12-25T20:48:42.311Z,8.03
2018-12-25T20:52:05.730Z,7.53
2018-12-25T20:54:42.298Z,9.03
2018-12-25T20:57:45.626Z,8.70
2018-12-25T21:00:55.834Z,9.47
2018-12-25T21:03:46.414Z,8.70
2018-12-25T21:10:30.113Z,9.43
2018-12-25T21:13:36.154Z,9.47
2018-12-25T21:16:25.555Z,9.30
2018-12-25T21:19:54.974Z,9.40
2018-12-25T21:23:07.238Z,8.93
2018-12-25T21:26:13.588Z,8.23
2018-12-25T21:28:44.019Z,9.40
2018-12-25T21:31:14.249Z,8.87
2018-12-25T21:33:44.035Z,8.60
2018-12-25T21:36:13.790Z,9.50
2018-12-25T21:38:44.057Z,9.47
2018-12-25T21:41:15.248Z,9.20
2018-12-25T21:43:45.682Z,9.33
2018-12-25T21:46:16.107Z,9.93
2018-12-25T21:48:46.472Z,9.43
2018-12-25T21:51:17.788Z,9.83
2018-12-25T21:53:48.376Z,9.53
2018-12-25T21:56:18.658Z,10.20
2018-12-25T21:58:49.044Z,10.37
2018-12-25T22:01:19.545Z,9.93
2018-12-25T22:03:49.739Z,10.40
2018-12-25T22:06:20.266Z,9.80
2018-12-25T22:08:50.665Z,9.70
2018-12-25T22:11:20.266Z,10.03
2018-12-25T22:13:50.677Z,9.90
2018-12-25T22:16:21.244Z,9.77
2018-12-25T22:18:52.372Z,9.77
2018-12-25T22:21:22.771Z,10.13
2018-12-25T22:23:53.200Z,8.53
2018-12-25T22:26:23.411Z,10.23
2018-12-25T22:28:53.724Z,11.43
2018-12-25T22:31:23.795Z,11.37
2018-12-25T22:33:53.842Z,10.93
2018-12-25T22:36:23.889Z,10.63
2018-12-25T22:38:55.068Z,10.53
2018-12-25T22:41:25.480Z,10.90
2018-12-25T22:43:54.922Z,10.97
2018-12-25T22:46:25.317Z,11.13
2018-12-25T22:48:55.437Z,11.27
2018-12-25T22:51:25.969Z,11.67
2018-12-25T22:54:10.838Z,11.13
2018-12-25T22:56:40.437Z,11.90
2018-12-25T22:59:10.262Z,11.13
2018-12-25T23:01:40.610Z,11.27
2018-12-25T23:04:10.995Z,10.57
2018-12-25T23:06:42.239Z,11.80
2018-12-25T23:09:12.554Z,11.40
2018-12-25T23:11:43.595Z,12.77
2018-12-25T23:14:13.414Z,12.30
2018-12-25T23:16:43.466Z,12.17
2018-12-25T23:19:14.055Z,11.97
2018-12-25T23:21:44.447Z,12.53
2018-12-25T23:24:14.524Z,12.63
2018-12-25T23:26:45.112Z,11.27
2018-12-25T23:29:14.631Z,12.57
2018-12-25T23:31:44.064Z,12.27
2018-12-25T23:34:14.378Z,11.57
2018-12-25T23:36:44.002Z,13.57
2018-12-25T23:39:13.807Z,13.70
2018-12-25T23:41:43.996Z,12.80
2018-12-25T23:44:14.377Z,12.40
2018-12-25T23:46:44.546Z,13.43
2018-12-25T23:49:14.668Z,13.23
2018-12-25T23:51:44.756Z,12.83
2018-12-25T23:54:14.861Z,13.57
2018-12-25T23:56:45.011Z,13.30
2018-12-25T23:59:15.175Z,13.80
